Billings, MT (59101)

12:21 AM MDT on August 29, 2014 (GMT -0600)
Lockwood | Change Station
CLOSE
Current Station
Personal Weather Station
Location: Billings, MT
Elevation: 3130 ft
Nearby Weather Stations

Elev 3130 ft 45.81 °N, 108.41 °W | Updated 3 seconds ago

Overcast
Overcast
66.8 °F
Feels Like 66.8 °F
N
0.0
Wind Variable Wind from SW
Gusts 1.1 mph

Today
High -- | Low -- °F
--% Chance of Precip.
Yesterday
High -- | Low -- °F
Precip. -- in
6:31 AM 7:57 PM
Waxing Crescent, 12% visible
Pressure 29.96 in
Visibility 10.0 miles
Clouds Few 4800 ft
Scattered Clouds 7500 ft
Overcast 10000 ft
Dew Point 55 °F
Humidity 65%
Rainfall 0.00 in
Snow Depth Not available.
UV 0 out of 12
Pollen 8.80 out of 12
Air Quality Not available.
Flu Activity Not available.
SPECI KBIL 290615Z 24012KT 10SM FEW048 SCT075 OVC100 18/13 A2996 RMK AO2 RAE14 TSE14 FRQ LTG DSNT NE-E CB DSNT NE-E P0002 T01830133

More Conditions Fewer Conditions

Pressure 29.96 in
Visibility 10.0 miles
Clouds Few 4800 ft
Scattered Clouds 7500 ft
Overcast 10000 ft
Dew Point 55 °F
Humidity 65%
Rainfall 0.00 in
Snow Depth Not available.
UV 0 out of 12
Pollen 8.80 out of 12
Air Quality Not available.
Flu Activity Not available.
SPECI KBIL 290615Z 24012KT 10SM FEW048 SCT075 OVC100 18/13 A2996 RMK AO2 RAE14 TSE14 FRQ LTG DSNT NE-E CB DSNT NE-E P0002 T01830133

More Conditions Fewer Conditions

10-Day Weather Forecast

Almanac

Astronomy

Aug. 29, 2014 Rise Set
Actual Time 6:31 AM MDT 7:57 PM MDT
Civil Twilight 6:00 AM MDT 8:28 PM MDT
Nautical Twilight 5:22 AM MDT 9:05 PM MDT
Astronomical Twilight 4:42 AM MDT 9:45 PM MDT
Moon 10:38 AM MDT 9:41 PM MDT
Length of Visible Light 14h 28m
Length of Day
13h 26m
Tomorrow will be 3m 4s shorter.
Waxing Crescent, 12% of the Moon is Illuminated
Today
Waxing Crescent
Sep 2
First Quarter
Sep 8
Full
Sep 15
Last Quarter
Sep 24
New

Community

WunderPhotos

Upload Photos

1,748,197 photos uploaded!

Nearby

Snow Depth

Station Depth Elevation
Cole Creek 0 in 7850 ft
Placer Basin 0 in 8830 ft
Crystal Lake 0 in 6050 ft
White Mill 1 in 8700 ft
Northeast Entrance 0 in 7350 ft

Earthquake Activity

City Distance Mag. Time & Date
No recent earthquake activity has been reported nearby.
Minimum magnitude displayed is 2.5.

Coastal Water Temperatures

Place Temperature
No Stations Reporting

Nearby Weather Stations